Time;durP1;ratioP1;P1;durP2;ratioP2;P2;SDS_P1;SDS_P2;PMS_P1;PMS_P2;Temp;Humidity;BMP_temperature;BMP_pressure;BME280_temperature;BME280_humidity;BME280_pressure;Samples;Min_cycle;Max_cycle;Signal;HPM_P1;HPM_P2
2021/06/01 00:01:25;;;;;;;6.38;2.63;;;;;;;14.34;66.73;99456.53;5041231;28;20285;-64
2021/06/01 00:03:51;;;;;;;6.43;2.20;;;;;;;14.55;66.18;99465.53;5038114;28;20037;-62
2021/06/01 00:06:17;;;;;;;4.05;2.60;;;;;;;14.34;66.63;99461.03;5040396;28;20060;-65
2021/06/01 00:08:43;;;;;;;4.70;2.50;;;;;;;14.43;66.04;99467.91;5040714;28;20044;-65
2021/06/01 00:11:10;;;;;;;11.13;3.10;;;;;;;14.28;66.29;99465.31;5024437;28;20033;-65
2021/06/01 00:13:36;;;;;;;4.25;2.47;;;;;;;14.21;67.36;99466.28;5038977;28;20041;-65
2021/06/01 00:16:04;;;;;;;4.05;2.30;;;;;;;14.27;66.61;99465.50;5040916;28;20096;-65
2021/06/01 00:18:29;;;;;;;6.40;3.00;;;;;;;14.14;67.27;99468.88;5037070;28;20265;-65
2021/06/01 00:20:55;;;;;;;3.97;2.83;;;;;;;13.96;68.05;99468.50;5031098;28;20038;-65
2021/06/01 00:23:20;;;;;;;6.05;2.65;;;;;;;13.95;67.60;99469.53;5025784;28;20375;-65
2021/06/01 00:25:46;;;;;;;2.47;1.83;;;;;;;13.94;67.83;99468.69;5025985;28;20034;-65
2021/06/01 00:28:11;;;;;;;4.30;2.58;;;;;;;13.98;68.30;99472.63;5037094;28;20033;-64
2021/06/01 00:30:37;;;;;;;2.63;2.10;;;;;;;13.87;68.05;99469.66;5025361;28;20120;-64
2021/06/01 00:33:02;;;;;;;3.88;2.70;;;;;;;13.81;68.65;99465.91;5021461;28;20042;-65
2021/06/01 00:35:28;;;;;;;4.75;2.33;;;;;;;13.90;68.54;99463.94;5039175;28;20337;-64
2021/06/01 00:37:54;;;;;;;5.15;2.30;;;;;;;13.95;68.48;99467.69;5040624;28;20036;-65
2021/06/01 00:40:19;;;;;;;3.97;2.30;;;;;;;13.83;68.57;99468.38;5032037;28;20093;-65
2021/06/01 00:42:45;;;;;;;4.43;2.50;;;;;;;13.90;68.42;99469.25;5024519;28;20014;-65
2021/06/01 00:45:17;;;;;;;5.97;2.70;;;;;;;13.77;68.27;99466.47;5025905;28;20308;-62
2021/06/01 00:47:42;;;;;;;3.58;2.40;;;;;;;13.73;68.32;99466.03;5020643;28;20235;-62
2021/06/01 00:50:08;;;;;;;5.25;2.40;;;;;;;13.66;68.96;99467.78;5024793;28;20039;-65
2021/06/01 00:52:33;;;;;;;4.47;2.05;;;;;;;13.81;68.78;99468.56;5031870;28;20075;-62
2021/06/01 00:54:59;;;;;;;4.60;2.20;;;;;;;13.84;68.31;99473.50;5029970;28;20037;-62
2021/06/01 00:57:24;;;;;;;3.53;2.50;;;;;;;13.79;68.25;99470.59;5028020;28;20083;-65
2021/06/01 00:59:49;;;;;;;2.70;1.90;;;;;;;13.73;68.58;99474.00;5029252;28;20025;-64
2021/06/01 01:02:15;;;;;;;6.38;2.00;;;;;;;13.62;68.75;99464.69;5028789;28;20030;-64
2021/06/01 01:04:40;;;;;;;3.20;1.85;;;;;;;13.81;67.89;99463.25;5025269;28;20030;-64
2021/06/01 01:07:17;;;;;;;2.70;2.20;;;;;;;13.69;68.65;99473.56;5032971;28;20218;-64
2021/06/01 01:09:45;;;;;;;5.72;2.17;;;;;;;13.72;68.49;99459.06;5028048;28;20037;-64
2021/06/01 01:12:26;;;;;;;3.83;1.85;;;;;;;13.77;67.96;99459.31;5029202;28;20338;-64
2021/06/01 01:14:59;;;;;;;3.85;2.10;;;;;;;13.80;67.70;99458.94;5028805;28;20315;-64
2021/06/01 01:17:33;;;;;;;6.68;2.20;;;;;;;13.87;66.99;99459.81;5029515;28;20053;-64
2021/06/01 01:20:17;;;;;;;;;;;;;;;13.91;67.27;99462.94;5024381;28;20079;-64
2021/06/01 01:22:45;;;;;;;6.80;2.35;;;;;;;13.78;67.56;99457.47;5027283;28;19913;-64
2021/06/01 01:25:33;;;;;;;4.80;2.45;;;;;;;13.81;67.91;99457.91;5036463;28;20061;-64
2021/06/01 01:28:02;;;;;;;5.68;2.65;;;;;;;13.81;67.41;99462.41;5031734;28;20069;-64
2021/06/01 01:30:46;;;;;;;4.85;2.85;;;;;;;13.72;67.86;99456.41;5032374;28;20056;-64
2021/06/01 01:33:35;;;;;;;5.20;3.15;;;;;;;13.50;68.40;99457.34;5031442;28;20022;-64
2021/06/01 01:36:06;;;;;;;4.82;3.28;;;;;;;13.49;69.09;99453.03;5028282;28;20045;-64
2021/06/01 01:38:34;;;;;;;4.68;3.22;;;;;;;13.52;68.37;99452.66;5032020;28;20049;-64
2021/06/01 01:41:26;;;;;;;7.78;3.47;;;;;;;13.54;68.68;99450.69;5031776;28;20034;-64
2021/06/01 01:43:56;;;;;;;8.00;3.60;;;;;;;13.52;68.22;99452.66;5030719;28;20087;-64
2021/06/01 01:46:38;;;;;;;7.18;3.50;;;;;;;13.55;68.46;99452.31;5040564;28;20385;-64
2021/06/01 01:49:05;;;;;;;6.82;3.97;;;;;;;13.59;68.37;99445.63;5043148;28;20029;-64
2021/06/01 01:51:37;;;;;;;6.32;3.90;;;;;;;13.58;68.28;99447.44;5031249;28;20013;-64
2021/06/01 01:54:08;;;;;;;4.90;3.47;;;;;;;13.63;68.32;99450.38;5027556;28;20191;-64
2021/06/01 01:56:38;;;;;;;4.70;3.75;;;;;;;13.58;68.36;99442.13;5035066;28;20030;-64
2021/06/01 01:59:11;;;;;;;6.40;4.18;;;;;;;13.60;68.08;99448.09;5030178;28;20361;-64
2021/06/01 02:01:39;;;;;;;8.68;4.47;;;;;;;13.49;68.58;99451.22;5031943;28;20057;-64
2021/06/01 02:04:05;;;;;;;10.73;4.22;;;;;;;13.47;68.00;99439.94;5030831;28;20045;-64
2021/06/01 02:06:31;;;;;;;7.18;4.07;;;;;;;13.44;68.41;99442.97;5028414;28;20057;-64
2021/06/01 02:08:57;;;;;;;9.75;4.45;;;;;;;13.38;68.38;99438.41;5028627;28;20111;-64
2021/06/01 02:11:22;;;;;;;6.85;3.65;;;;;;;13.35;68.24;99439.59;5030201;28;20034;-64
2021/06/01 02:14:03;;;;;;;4.82;3.63;;;;;;;13.42;68.57;99432.53;5027810;28;20033;-64
2021/06/01 02:16:31;;;;;;;11.95;4.65;;;;;;;13.27;68.57;99437.06;5033536;28;20599;-64
2021/06/01 02:18:56;;;;;;;10.13;4.18;;;;;;;13.10;69.08;99433.75;5032112;28;20045;-64
2021/06/01 02:21:34;;;;;;;7.47;4.38;;;;;;;13.12;69.44;99430.91;5027473;28;20041;-64
2021/06/01 02:24:12;;;;;;;8.77;4.35;;;;;;;13.17;69.04;99441.84;5034181;28;20040;-64
2021/06/01 02:27:12;;;;;;;6.88;4.07;;;;;;;13.24;69.04;99433.94;5028129;28;20036;-63
2021/06/01 02:30:00;;;;;;;9.95;4.63;;;;;;;13.22;69.10;99434.13;5009749;28;20042;-64
2021/06/01 02:32:31;;;;;;;7.38;4.20;;;;;;;13.21;69.09;99435.13;5037501;28;20029;-64
2021/06/01 02:35:00;;;;;;;6.22;4.22;;;;;;;13.24;68.11;99434.75;5024601;28;20087;-64
2021/06/01 02:37:27;;;;;;;9.20;4.40;;;;;;;13.28;68.58;99433.38;5038879;28;20319;-64
2021/06/01 02:39:54;;;;;;;8.52;4.25;;;;;;;13.25;68.93;99435.59;5034095;28;20145;-64
2021/06/01 02:42:19;;;;;;;13.48;4.57;;;;;;;13.23;69.00;99427.81;5028546;28;20037;-64
2021/06/01 02:44:45;;;;;;;8.48;4.78;;;;;;;13.29;68.66;99427.06;5028607;28;20022;-64
2021/06/01 02:47:11;;;;;;;7.38;4.40;;;;;;;13.43;67.70;99430.69;5030418;28;20033;-64
2021/06/01 02:49:37;;;;;;;7.70;4.32;;;;;;;13.15;68.58;99435.84;5035494;28;20251;-64
2021/06/01 02:52:03;;;;;;;7.97;4.72;;;;;;;13.20;68.74;99437.97;5033447;28;20033;-64
2021/06/01 02:54:29;;;;;;;8.05;4.82;;;;;;;13.26;68.08;99430.09;5023744;28;20042;-64
2021/06/01 02:56:54;;;;;;;7.30;4.28;;;;;;;13.28;68.17;99441.34;5022282;28;20046;-64
2021/06/01 02:59:20;;;;;;;7.88;4.57;;;;;;;13.31;67.96;99432.19;5030314;28;20219;-64
2021/06/01 03:01:49;;;;;;;6.57;4.50;;;;;;;13.22;68.92;99426.16;5030082;28;20029;-64
2021/06/01 03:04:15;;;;;;;6.65;4.45;;;;;;;13.27;68.19;99437.06;5006804;28;20223;-64
2021/06/01 03:06:43;;;;;;;7.97;4.72;;;;;;;13.32;67.90;99439.16;5034721;28;20029;-64
2021/06/01 03:09:08;;;;;;;7.22;5.28;;;;;;;13.31;67.52;99430.34;5027423;28;20060;-64
2021/06/01 03:11:34;;;;;;;7.85;4.65;;;;;;;13.33;67.89;99436.31;5026510;28;20319;-64
2021/06/01 03:13:59;;;;;;;7.25;5.07;;;;;;;13.36;67.62;99430.59;5029966;28;20215;-64
2021/06/01 03:16:25;;;;;;;10.45;5.32;;;;;;;13.11;67.93;99378.75;5032404;28;20045;-64
2021/06/01 03:18:50;;;;;;;6.82;4.72;;;;;;;13.31;68.21;99430.34;5035828;28;20234;-64
2021/06/01 03:21:16;;;;;;;6.07;4.50;;;;;;;13.24;68.28;99432.09;5029673;28;20290;-64
2021/06/01 03:23:46;;;;;;;6.97;5.10;;;;;;;13.40;68.04;99442.53;5031429;28;20049;-64
2021/06/01 03:26:12;;;;;;;9.85;5.28;;;;;;;13.37;68.22;99432.25;5024719;28;20061;-64
2021/06/01 03:28:37;;;;;;;10.05;4.93;;;;;;;13.38;68.11;99436.56;5029221;28;20060;-64
2021/06/01 03:31:03;;;;;;;6.75;4.60;;;;;;;13.47;68.50;99439.94;5032109;28;20310;-64
2021/06/01 03:33:29;;;;;;;10.93;4.63;;;;;;;13.42;68.22;99447.66;5035915;28;20067;-64
2021/06/01 03:35:55;;;;;;;8.25;4.68;;;;;;;13.50;68.30;99434.25;5042747;28;20071;-64
2021/06/01 03:38:20;;;;;;;7.60;4.65;;;;;;;13.58;67.64;99430.66;5042743;28;20034;-64
2021/06/01 03:40:46;;;;;;;7.68;4.40;;;;;;;13.60;67.59;99429.47;5042287;28;20028;-64
2021/06/01 03:43:11;;;;;;;7.32;4.80;;;;;;;13.57;67.07;99432.50;5042417;28;20075;-64
2021/06/01 03:45:37;;;;;;;5.90;4.72;;;;;;;13.57;67.52;99439.66;5027695;28;20064;-64
2021/06/01 03:48:03;;;;;;;8.27;4.60;;;;;;;13.58;67.31;99434.16;5024768;28;20033;-64
2021/06/01 03:50:29;;;;;;;5.93;4.53;;;;;;;13.71;67.21;99436.13;5036818;28;20148;-64
2021/06/01 03:52:54;;;;;;;12.05;4.38;;;;;;;13.68;66.73;99434.66;5033472;28;20048;-64
2021/06/01 03:55:20;;;;;;;7.03;4.25;;;;;;;13.79;66.28;99433.34;5034673;28;20139;-64
2021/06/01 03:57:47;;;;;;;6.82;4.60;;;;;;;13.84;65.98;99435.44;5028881;28;20021;-64
2021/06/01 04:00:15;;;;;;;6.93;4.78;;;;;;;13.84;66.48;99435.44;5033116;28;20048;-64
2021/06/01 04:02:41;;;;;;;8.18;5.22;;;;;;;13.96;66.73;99434.72;5035664;28;20033;-64
2021/06/01 04:05:07;;;;;;;7.85;4.70;;;;;;;13.98;66.23;99437.19;5039878;28;20357;-64
2021/06/01 04:07:32;;;;;;;7.85;4.15;;;;;;;14.09;66.01;99433.19;5041015;28;20041;-64
2021/06/01 04:09:58;;;;;;;13.18;4.82;;;;;;;14.20;65.50;99438.00;5036105;28;20075;-64
2021/06/01 04:12:23;;;;;;;6.22;4.70;;;;;;;14.36;64.74;99437.72;5033809;28;20096;-64
2021/06/01 04:14:49;;;;;;;7.95;4.32;;;;;;;14.26;65.59;99435.38;5032041;28;20323;-64
2021/06/01 04:17:14;;;;;;;6.75;4.55;;;;;;;14.42;64.80;99436.09;5033913;28;20033;-64
2021/06/01 04:19:40;;;;;;;7.55;4.13;;;;;;;14.70;64.41;99428.97;5035368;28;20038;-64
2021/06/01 04:22:05;;;;;;;7.75;4.30;;;;;;;15.00;63.01;99429.53;5034975;28;20335;-65
2021/06/01 04:24:31;;;;;;;10.32;4.47;;;;;;;15.29;63.05;99431.91;5034494;28;20036;-64
2021/06/01 04:27:00;;;;;;;9.80;4.05;;;;;;;15.48;62.15;99429.50;5044809;28;20055;-64
2021/06/01 04:29:27;;;;;;;6.30;3.80;;;;;;;15.83;60.37;99422.25;5043947;28;20227;-65
2021/06/01 04:31:52;;;;;;;8.40;3.53;;;;;;;16.03;59.20;99422.25;5039751;28;20303;-65
2021/06/01 04:34:18;;;;;;;5.85;3.92;;;;;;;16.04;59.17;99424.72;5037098;28;20033;-64
2021/06/01 04:36:43;;;;;;;9.65;4.05;;;;;;;16.15;59.39;99426.78;5037701;28;20045;-64
2021/06/01 04:39:10;;;;;;;8.02;3.92;;;;;;;16.38;58.40;99426.34;5037276;28;20029;-64
2021/06/01 04:41:36;;;;;;;7.28;3.95;;;;;;;16.67;58.59;99429.66;5040737;28;20223;-64
2021/06/01 04:44:03;;;;;;;4.63;4.07;;;;;;;16.73;56.79;99415.47;5043598;28;20037;-64
2021/06/01 04:46:28;;;;;;;7.30;3.75;;;;;;;16.49;57.29;99427.56;5037459;28;20025;-64
2021/06/01 04:48:53;;;;;;;4.88;4.13;;;;;;;16.81;56.52;99418.72;5042338;28;20021;-64
2021/06/01 04:51:20;;;;;;;7.93;3.80;;;;;;;17.38;55.78;99429.63;5043864;28;20032;-64
2021/06/01 04:53:49;;;;;;;6.68;3.75;;;;;;;17.73;53.62;99419.38;5037017;28;20048;-65
2021/06/01 04:56:15;;;;;;;5.70;3.58;;;;;;;17.90;53.06;99431.22;5036819;28;20045;-64
2021/06/01 04:58:41;;;;;;;7.35;4.15;;;;;;;17.98;52.16;99427.44;5038261;28;20061;-64
2021/06/01 05:01:06;;;;;;;5.93;3.83;;;;;;;18.01;51.07;99425.16;5037178;28;20060;-64
2021/06/01 05:03:32;;;;;;;6.10;3.50;;;;;;;18.33;51.58;99431.28;5036487;28;20033;-64
2021/06/01 05:05:57;;;;;;;6.03;3.40;;;;;;;18.53;49.89;99431.09;5038979;28;20033;-65
2021/06/01 05:08:23;;;;;;;4.00;3.28;;;;;;;18.93;49.23;99426.19;5035904;28;20105;-64
2021/06/01 05:10:48;;;;;;;4.35;3.60;;;;;;;18.84;49.12;99424.84;5041341;28;20021;-64
2021/06/01 05:13:14;;;;;;;4.32;3.40;;;;;;;19.30;49.22;99426.97;5043103;28;20033;-65
2021/06/01 05:15:39;;;;;;;8.68;3.80;;;;;;;19.41;48.00;99420.84;5039963;28;20022;-64
2021/06/01 05:18:05;;;;;;;5.55;3.90;;;;;;;19.46;48.13;99420.97;5037375;28;20048;-64
2021/06/01 05:20:30;;;;;;;7.15;4.00;;;;;;;19.32;48.38;99419.50;5037431;28;20037;-64
2021/06/01 05:22:56;;;;;;;4.05;3.63;;;;;;;19.40;48.04;99407.63;5036664;28;20040;-64
2021/06/01 05:25:21;;;;;;;5.57;3.38;;;;;;;19.25;48.98;99413.41;5037233;28;20034;-64
2021/06/01 05:27:46;;;;;;;6.85;3.72;;;;;;;19.66;48.87;99414.53;5037511;28;20084;-64
2021/06/01 05:30:16;;;;;;;5.68;3.63;;;;;;;19.79;47.83;99386.69;5036527;28;20039;-64
2021/06/01 05:35:17;;;;;;;5.05;3.28;;;;;;;20.02;47.83;99418.97;5038770;28;20028;-64
2021/06/01 05:37:43;;;;;;;5.63;3.50;;;;;;;20.32;47.68;99417.03;5036126;28;20043;-64
2021/06/01 05:40:09;;;;;;;7.03;3.42;;;;;;;20.32;46.48;99410.81;5036527;28;20041;-65
2021/06/01 05:42:34;;;;;;;6.25;3.30;;;;;;;20.78;45.92;99417.25;5036780;28;20334;-65
2021/06/01 05:45:00;;;;;;;5.47;3.38;;;;;;;21.14;45.23;99405.41;5036675;28;20044;-64
2021/06/01 05:47:25;;;;;;;7.15;3.45;;;;;;;20.91;44.64;99403.59;5035275;28;20032;-65
2021/06/01 05:49:51;;;;;;;4.93;3.25;;;;;;;20.98;44.53;99404.28;5036815;28;20226;-64
2021/06/01 05:52:17;;;;;;;4.88;3.10;;;;;;;21.19;44.39;99403.63;5034836;28;20327;-64
2021/06/01 05:54:42;;;;;;;4.32;3.10;;;;;;;21.49;43.41;99403.41;5036430;28;20033;-64
2021/06/01 05:57:08;;;;;;;4.82;2.92;;;;;;;21.24;44.15;99406.44;5035447;28;20220;-64
2021/06/01 05:59:34;;;;;;;6.03;2.97;;;;;;;21.75;43.82;99398.47;5039438;28;20033;-65
2021/06/01 06:01:59;;;;;;;6.15;2.67;;;;;;;21.88;43.27;99403.59;5042033;28;20029;-65
2021/06/01 06:04:25;;;;;;;3.15;2.85;;;;;;;22.43;42.98;99406.38;5037259;28;20113;-62
2021/06/01 06:06:50;;;;;;;3.15;2.85;;;;;;;22.08;42.11;99406.66;5036899;28;20319;-65
2021/06/01 06:09:16;;;;;;;4.57;2.95;;;;;;;22.32;42.67;99412.69;5036753;28;20047;-65
2021/06/01 06:11:41;;;;;;;3.83;2.80;;;;;;;22.54;42.38;99402.78;5038873;28;20029;-65
2021/06/01 06:14:07;;;;;;;7.80;3.10;;;;;;;22.38;42.56;99403.63;5041960;28;20033;-65
2021/06/01 06:16:48;;;;;;;3.08;2.70;;;;;;;21.85;43.09;99401.38;5038474;28;20040;-65
2021/06/01 06:19:14;;;;;;;4.47;2.50;;;;;;;22.12;44.13;99409.69;5033751;28;20096;-65
2021/06/01 06:21:39;;;;;;;2.60;2.05;;;;;;;22.54;42.42;99407.34;5041178;28;20254;-62
2021/06/01 06:24:05;;;;;;;5.18;2.20;;;;;;;23.19;40.34;99402.06;5042033;28;20226;-62
2021/06/01 06:26:30;;;;;;;6.00;2.33;;;;;;;23.40;39.79;99399.56;5037508;28;20040;-62
2021/06/01 06:28:56;;;;;;;3.63;2.30;;;;;;;23.50;38.55;99389.69;5038330;28;20289;-65
2021/06/01 06:31:21;;;;;;;3.42;2.20;;;;;;;22.99;39.96;99409.09;5041531;28;20030;-62
2021/06/01 06:33:47;;;;;;;3.35;2.15;;;;;;;23.10;39.62;99397.34;5037398;28;20037;-62
2021/06/01 06:36:12;;;;;;;6.80;1.98;;;;;;;23.59;38.38;99402.78;5036499;28;20037;-62
2021/06/01 06:38:38;;;;;;;3.05;2.50;;;;;;;23.68;39.47;99414.75;5041454;28;20074;-62
2021/06/01 06:43:35;;;;;;;2.72;2.15;;;;;;;23.67;39.07;99405.81;5037440;28;20039;-65
2021/06/01 06:46:02;;;;;;;3.28;1.95;;;;;;;23.79;39.16;99382.16;5036725;28;20025;-62
2021/06/01 06:48:28;;;;;;;3.20;2.30;;;;;;;23.62;39.17;99400.38;5041965;28;20043;-62
2021/06/01 06:50:53;;;;;;;2.95;2.10;;;;;;;23.43;39.84;99405.28;5039934;28;20029;-62
2021/06/01 06:53:19;;;;;;;4.15;2.35;;;;;;;23.41;39.06;99395.81;5036337;28;20448;-62
2021/06/01 06:55:44;;;;;;;7.55;2.45;;;;;;;23.38;39.21;99385.50;5032729;28;20207;-62
2021/06/01 06:58:10;;;;;;;1.77;1.50;;;;;;;23.67;38.71;99396.91;5037027;28;20047;-62
2021/06/01 07:00:36;;;;;;;2.75;1.83;;;;;;;24.16;38.43;99398.44;5035575;28;20025;-62
2021/06/01 07:03:01;;;;;;;3.40;1.45;;;;;;;24.16;37.98;99397.63;5033605;28;20413;-63
2021/06/01 07:05:26;;;;;;;3.08;1.60;;;;;;;24.36;36.41;99402.41;5033351;28;20291;-62
2021/06/01 07:07:53;;;;;;;2.30;1.52;;;;;;;24.45;35.74;99406.25;5037150;28;20045;-62
2021/06/01 07:10:20;;;;;;;1.80;1.70;;;;;;;24.18;36.63;99395.47;5037504;28;20030;-62
2021/06/01 07:12:46;;;;;;;3.08;1.45;;;;;;;24.31;36.08;99394.25;5040812;28;20033;-62
2021/06/01 07:15:24;;;;;;;5.53;1.60;;;;;;;24.69;35.83;99391.22;5040117;28;20092;-62
2021/06/01 07:17:55;;;;;;;5.75;1.58;;;;;;;24.52;35.97;99396.00;5042133;28;20029;-62
2021/06/01 07:20:21;;;;;;;3.00;1.48;;;;;;;25.00;36.25;99394.13;5034619;28;20053;-62
2021/06/01 07:22:46;;;;;;;4.43;1.50;;;;;;;25.20;34.94;99387.97;5035485;28;20145;-62
2021/06/01 07:25:12;;;;;;;2.13;1.50;;;;;;;25.29;34.79;99392.63;5034909;28;20259;-62
2021/06/01 07:27:38;;;;;;;2.75;1.45;;;;;;;24.88;34.14;99396.19;5032704;28;20037;-62
2021/06/01 07:30:06;;;;;;;1.50;1.40;;;;;;;25.36;35.02;99392.38;5039499;28;20099;-62
2021/06/01 07:32:31;;;;;;;2.53;1.50;;;;;;;25.53;34.69;99389.41;5041647;28;20068;-62
2021/06/01 07:34:59;;;;;;;5.10;1.67;;;;;;;25.65;34.28;99389.97;5041604;28;20254;-62
2021/06/01 07:37:24;;;;;;;3.58;1.80;;;;;;;25.66;34.20;99389.75;5041534;28;20047;-62
2021/06/01 07:39:49;;;;;;;1.60;1.50;;;;;;;25.70;34.33;99390.81;5029258;28;20026;-62
2021/06/01 07:42:15;;;;;;;2.13;1.42;;;;;;;25.65;34.18;99385.41;5036068;28;20037;-62
2021/06/01 07:44:40;;;;;;;1.60;1.50;;;;;;;25.81;34.18;99377.28;5033656;28;20227;-62
2021/06/01 07:47:06;;;;;;;1.45;1.35;;;;;;;25.91;32.67;99386.22;5034019;28;20033;-62
2021/06/01 07:49:31;;;;;;;4.45;1.52;;;;;;;24.61;34.99;99372.78;5035889;28;20207;-62
2021/06/01 07:51:57;;;;;;;1.73;1.55;;;;;;;25.50;34.83;99382.63;5034025;28;20380;-62
2021/06/01 07:54:22;;;;;;;1.67;1.13;;;;;;;26.20;33.50;99383.00;5033506;28;20037;-62
2021/06/01 07:56:48;;;;;;;5.18;1.27;;;;;;;26.00;32.08;99384.59;5035702;28;20025;-62
2021/06/01 07:59:13;;;;;;;1.60;1.30;;;;;;;26.05;32.07;99376.50;5034037;28;20042;-62
2021/06/01 08:01:41;;;;;;;2.47;1.00;;;;;;;25.97;30.79;99376.19;5035164;28;20024;-62
2021/06/01 08:04:06;;;;;;;1.50;1.40;;;;;;;26.21;31.45;99382.72;5033603;28;20059;-62
2021/06/01 08:06:36;;;;;;;2.45;1.08;;;;;;;26.30;32.00;99372.94;5036091;28;20037;-62
2021/06/01 08:09:06;;;;;;;3.60;1.20;;;;;;;25.96;32.21;99374.56;5033364;28;20038;-63
2021/06/01 08:11:32;;;;;;;3.15;1.25;;;;;;;25.06;33.66;99376.81;5032761;28;20083;-62
2021/06/01 08:13:58;;;;;;;4.72;1.42;;;;;;;24.39;35.08;99380.22;5022937;28;20032;-62
2021/06/01 08:16:23;;;;;;;3.65;1.17;;;;;;;23.83;34.57;99379.75;5033592;28;20045;-62
2021/06/01 08:19:01;;;;;;;3.38;1.17;;;;;;;24.43;34.09;99374.03;5034122;28;20038;-62
2021/06/01 08:21:40;;;;;;;2.65;1.38;;;;;;;24.20;35.13;99382.50;5032743;28;20033;-62
2021/06/01 08:24:06;;;;;;;3.40;1.20;;;;;;;24.59;34.40;99385.75;5034970;28;20251;-62
2021/06/01 08:26:32;;;;;;;2.88;1.75;;;;;;;24.84;34.72;99380.47;5034838;28;20026;-62
2021/06/01 08:28:57;;;;;;;7.65;1.58;;;;;;;25.33;34.60;99379.34;5040317;28;20040;-62
2021/06/01 08:31:22;;;;;;;4.30;1.52;;;;;;;25.83;33.18;99372.41;5035671;28;20030;-62
2021/06/01 08:33:48;;;;;;;4.25;1.15;;;;;;;25.23;33.29;99355.75;5031935;28;20041;-62
2021/06/01 08:36:13;;;;;;;2.90;1.40;;;;;;;25.42;32.76;99378.56;5039563;28;20237;-62
2021/06/01 08:38:39;;;;;;;1.95;1.35;;;;;;;25.37;33.60;99383.97;5038480;28;20033;-62
2021/06/01 08:41:06;;;;;;;5.45;1.45;;;;;;;25.57;33.60;99366.09;5028480;28;20072;-63
2021/06/01 08:43:32;;;;;;;1.33;1.23;;;;;;;25.32;33.72;99375.81;5034474;28;20025;-62
2021/06/01 08:45:58;;;;;;;1.80;1.23;;;;;;;25.26;32.83;99382.31;5040239;28;20259;-62
2021/06/01 08:48:26;;;;;;;2.13;1.20;;;;;;;25.00;33.96;99369.75;5039544;28;20060;-62
2021/06/01 08:50:54;;;;;;;2.22;1.40;;;;;;;25.63;33.61;99363.13;5032398;28;20029;-63
2021/06/01 08:53:19;;;;;;;8.70;1.67;;;;;;;25.82;32.63;99365.34;5030726;28;20354;-63
2021/06/01 08:55:46;;;;;;;1.80;1.50;;;;;;;25.44;33.45;99364.72;5035221;28;20033;-62
2021/06/01 08:58:17;;;;;;;3.03;1.38;;;;;;;25.34;34.04;99370.94;5035704;28;20037;-63
2021/06/01 09:00:44;;;;;;;2.88;1.45;;;;;;;25.06;33.36;99368.69;5034306;28;20345;-62
2021/06/01 09:03:16;;;;;;;2.30;1.48;;;;;;;24.02;34.99;99370.19;5033013;28;20532;-62
2021/06/01 09:06:40;;;;;;;1.50;1.40;;;;;;;23.67;36.76;99376.09;5031087;28;20025;-65
2021/06/01 09:22:36;;;;;;;2.38;1.65;;;;;;;22.23;39.75;99368.31;5044311;28;20029;-65
2021/06/01 09:25:05;;;;;;;2.35;1.40;;;;;;;22.18;40.07;99365.53;5043813;28;20393;-64
2021/06/01 09:27:51;;;;;;;1.50;1.40;;;;;;;22.60;38.54;99355.09;5043974;28;20078;-64
2021/06/01 09:30:40;;;;;;;2.25;1.60;;;;;;;23.15;37.42;99355.00;5044286;28;20040;-62
2021/06/01 09:33:25;;;;;;;2.03;1.42;;;;;;;23.34;38.62;99351.97;5043936;28;20037;-63
2021/06/01 09:35:57;;;;;;;1.92;1.20;;;;;;;23.59;37.30;99346.00;5042758;28;20025;-62
2021/06/01 09:38:23;;;;;;;1.90;1.38;;;;;;;24.06;38.13;99359.69;5042306;28;20037;-62
2021/06/01 09:41:05;;;;;;;3.10;1.40;;;;;;;24.09;36.44;99351.84;5043868;28;20037;-62
2021/06/01 09:43:31;;;;;;;6.22;1.75;;;;;;;24.01;35.67;99354.22;5043818;28;20041;-62
2021/06/01 09:45:57;;;;;;;2.53;1.40;;;;;;;23.94;36.89;99348.22;5043786;28;20037;-62
2021/06/01 09:48:24;;;;;;;1.73;1.40;;;;;;;23.58;36.68;99357.91;5044034;28;20331;-62
2021/06/01 09:53:31;;;;;;;4.22;1.40;;;;;;;23.22;37.53;99355.63;5043731;28;20029;-65
2021/06/01 09:55:57;;;;;;;1.70;1.30;;;;;;;22.77;37.43;99345.06;5043658;28;20044;-64
2021/06/01 09:58:24;;;;;;;3.10;1.40;;;;;;;22.89;38.71;99344.97;5043387;28;20033;-64
2021/06/01 10:00:50;;;;;;;3.63;1.20;;;;;;;22.56;39.87;99343.16;5043382;28;20067;-64
2021/06/01 10:03:24;;;;;;;1.17;1.08;;;;;;;22.45;38.63;99349.47;5043701;28;20037;-64
2021/06/01 10:05:54;;;;;;;3.08;1.20;;;;;;;22.73;38.55;99348.50;5043398;28;20330;-64
2021/06/01 10:08:23;;;;;;;1.33;1.20;;;;;;;22.75;37.55;99352.59;5042951;28;20045;-64
2021/06/01 10:10:52;;;;;;;3.85;1.30;;;;;;;22.96;37.91;99334.81;5043107;28;20032;-64
2021/06/01 10:13:18;;;;;;;1.35;1.25;;;;;;;23.06;36.97;99344.91;5040468;28;20057;-64
2021/06/01 10:15:44;;;;;;;1.05;0.90;;;;;;;22.86;37.75;99337.34;5043202;28;20024;-64
2021/06/01 10:18:11;;;;;;;2.00;0.98;;;;;;;22.48;37.54;99338.19;5043200;28;20033;-64
2021/06/01 10:20:38;;;;;;;2.45;1.10;;;;;;;22.74;39.80;99342.84;5043102;28;20045;-64
2021/06/01 10:23:06;;;;;;;3.83;0.95;;;;;;;23.12;37.67;99327.69;5042565;28;20323;-64
2021/06/01 10:25:32;;;;;;;3.65;1.00;;;;;;;23.26;36.83;99334.31;5043055;28;20244;-64
2021/06/01 10:28:03;;;;;;;2.97;0.93;;;;;;;23.35;37.00;99331.97;5043372;28;20033;-64
2021/06/01 10:30:31;;;;;;;2.60;0.70;;;;;;;23.40;37.17;99329.31;5042761;28;20032;-64
2021/06/01 10:33:07;;;;;;;6.15;0.90;;;;;;;23.59;35.98;99332.50;5043529;28;20033;-64
2021/06/01 10:35:37;;;;;;;2.92;0.63;;;;;;;23.67;36.13;99330.16;5042854;28;20075;-64
2021/06/01 10:44:35;;;;;;;4.15;0.90;;;;;;;23.12;36.77;99331.22;5042754;28;20105;-64
2021/06/01 10:50:31;;;;;;;3.78;0.68;;;;;;;23.00;35.57;99327.03;5041264;28;20093;-64
2021/06/01 10:53:28;;;;;;;3.92;0.90;;;;;;;23.19;37.95;99323.72;5038031;28;20049;-64
2021/06/01 10:56:03;;;;;;;2.00;0.50;;;;;;;23.11;36.76;99324.19;5042466;28;20144;-64
2021/06/01 10:58:41;;;;;;;1.38;0.90;;;;;;;23.18;37.19;99318.56;5041096;28;20378;-64
2021/06/01 11:04:24;;;;;;;3.67;1.00;;;;;;;23.28;39.48;99324.06;5033032;28;20044;-64
2021/06/01 11:09:44;;;;;;;1.80;1.05;;;;;;;23.22;38.92;99328.63;5034866;28;20038;-64
2021/06/01 11:12:12;;;;;;;3.33;1.33;;;;;;;23.14;39.35;99326.38;5036596;28;20240;-64
2021/06/01 11:14:38;;;;;;;2.92;1.30;;;;;;;23.18;39.70;99321.28;5034507;28;20025;-64
2021/06/01 11:17:04;;;;;;;1.35;1.20;;;;;;;23.01;40.07;99317.84;5033106;28;20222;-64
2021/06/01 11:20:02;;;;;;;7.15;1.20;;;;;;;23.19;38.40;99320.19;5035424;28;20262;-64
2021/06/01 11:33:28;;;;;;;1.83;1.13;;;;;;;23.06;38.40;99323.31;5038002;28;20044;-63
2021/06/01 11:35:56;;;;;;;1.08;0.88;;;;;;;23.23;38.81;99318.63;5040898;28;20041;-61
2021/06/01 11:38:38;;;;;;;3.60;0.73;;;;;;;23.33;35.34;99317.91;5041641;28;20090;-64
2021/06/01 11:43:49;;;;;;;2.70;0.80;;;;;;;23.33;36.39;99318.72;5041913;28;20037;-64
2021/06/01 11:51:24;;;;;;;3.72;1.10;;;;;;;23.06;39.09;99318.72;5041577;28;20025;-64
2021/06/01 11:54:02;;;;;;;2.92;1.23;;;;;;;23.21;39.13;99331.56;5041443;28;20037;-64
2021/06/01 12:20:55;;;;;;;4.82;1.23;;;;;;;22.04;36.67;99313.84;5032673;28;20104;-64
2021/06/01 12:23:27;;;;;;;1.48;0.90;;;;;;;21.83;38.05;99320.75;5033780;28;20033;-64
2021/06/01 12:26:11;;;;;;;1.73;1.30;;;;;;;22.27;39.19;99320.91;5033338;28;20266;-64
2021/06/01 12:31:53;;;;;;;9.48;1.48;;;;;;;22.33;38.37;99329.91;5037909;28;20055;-63
2021/06/01 12:43:14;;;;;;;4.95;0.80;;;;;;;22.36;37.22;99337.50;5033336;28;20067;-64
2021/06/01 13:19:21;;;;;;;0.25;0.25;;;;;;;21.35;39.35;99378.66;5014818;28;20115;-64
2021/06/01 13:31:26;;;;;;;1.40;0.50;;;;;;;22.19;37.60;99359.91;5015800;28;20032;-64
2021/06/01 13:36:44;;;;;;;5.05;0.60;;;;;;;22.03;39.19;99359.91;5016057;28;20140;-64
2021/06/01 13:47:17;;;;;;;0.60;0.60;;;;;;;21.85;39.66;99375.25;5020290;28;20125;-64
2021/06/01 13:49:47;;;;;;;0.80;0.50;;;;;;;21.56;39.42;99376.31;5014839;28;20149;-64
2021/06/01 13:55:07;;;;;;;4.25;0.85;;;;;;;21.45;39.47;99374.50;5022886;28;20327;-64
2021/06/01 14:21:15;;;;;;;1.02;0.70;;;;;;;21.52;40.84;99399.41;5021025;28;20049;-63
2021/06/01 15:28:54;;;;;;;1.08;0.30;;;;;;;20.59;38.75;99430.84;5042002;28;20653;-64
2021/06/01 15:48:07;;;;;;;0.70;0.50;;;;;;;20.31;39.85;99414.56;5036437;28;20105;-64
2021/06/01 15:51:04;;;;;;;2.85;0.43;;;;;;;20.19;40.37;99430.69;5034369;28;20037;-64
2021/06/01 17:12:53;;;;;;;4.45;0.80;;;;;;;18.90;46.56;99507.13;5032601;28;20041;-64
2021/06/01 17:15:19;;;;;;;7.05;1.77;;;;;;;18.83;46.83;99511.72;5033034;28;20029;-64